createdAt,value
2023-03-22T00:00:22.076Z,5.35
2023-03-22T00:04:24.756Z,5.24
2023-03-22T00:08:27.456Z,5.00
2023-03-22T00:12:30.462Z,4.51
2023-03-22T00:16:34.543Z,4.83
2023-03-22T00:20:39.487Z,4.17
2023-03-22T00:24:42.285Z,4.34
2023-03-22T00:28:45.506Z,4.05
2023-03-22T00:32:49.548Z,4.13
2023-03-22T00:36:52.936Z,3.77
2023-03-22T00:40:55.666Z,4.16
2023-03-22T00:44:58.376Z,3.91
2023-03-22T00:49:02.446Z,3.73
2023-03-22T00:53:05.823Z,3.40
2023-03-22T00:57:08.829Z,4.02
2023-03-22T01:01:14.189Z,3.71
2023-03-22T01:05:22.048Z,3.49
2023-03-22T01:09:24.748Z,3.72
2023-03-22T01:13:27.566Z,3.28
2023-03-22T01:17:30.299Z,3.42
2023-03-22T01:21:34.431Z,2.88
2023-03-22T01:25:37.133Z,2.97
2023-03-22T01:29:39.835Z,3.62
2023-03-22T01:33:42.720Z,3.18
2023-03-22T01:37:46.747Z,3.27
2023-03-22T01:41:49.424Z,3.34
2023-03-22T01:45:53.540Z,3.48
2023-03-22T01:49:56.146Z,3.48
2023-03-22T01:54:02.205Z,3.37
2023-03-22T01:58:05.838Z,3.46
2023-03-22T02:02:11.120Z,3.16
2023-03-22T02:06:13.881Z,3.55
2023-03-22T02:10:20.569Z,3.55
2023-03-22T02:14:44.321Z,3.35
2023-03-22T02:18:58.817Z,2.63
2023-03-22T02:23:20.294Z,2.74
2023-03-22T02:27:36.949Z,2.88
2023-03-22T02:32:07.420Z,3.07
2023-03-22T02:36:32.655Z,2.77
2023-03-22T02:40:41.503Z,2.94
2023-03-22T02:44:47.069Z,2.75
2023-03-22T02:48:55.568Z,2.47
2023-03-22T02:53:02.400Z,2.63
2023-03-22T02:57:10.832Z,2.99
2023-03-22T03:01:18.578Z,2.85
2023-03-22T03:05:21.799Z,2.65
2023-03-22T03:09:24.751Z,2.93
2023-03-22T03:13:28.931Z,3.10
2023-03-22T03:17:41.729Z,3.23
2023-03-22T03:21:47.391Z,3.37
2023-03-22T03:25:58.002Z,3.58
2023-03-22T03:30:06.686Z,3.74
2023-03-22T03:34:16.654Z,3.70
2023-03-22T03:38:21.128Z,3.78
2023-03-22T03:42:26.780Z,3.87
2023-03-22T03:46:30.814Z,3.88
2023-03-22T03:50:33.954Z,3.85
2023-03-22T03:54:36.638Z,3.73
2023-03-22T03:58:39.326Z,3.59
2023-03-22T04:02:43.582Z,3.58
2023-03-22T04:06:46.238Z,3.78
2023-03-22T04:10:50.968Z,3.84
2023-03-22T04:14:55.954Z,3.74
2023-03-22T04:19:00.621Z,3.61
2023-03-22T04:23:03.300Z,3.68
2023-03-22T04:27:05.988Z,3.67
2023-03-22T04:31:09.087Z,3.75
2023-03-22T04:35:13.153Z,3.73
2023-03-22T04:39:16.160Z,3.85
2023-03-22T04:43:18.929Z,3.74
2023-03-22T04:47:21.573Z,4.07
2023-03-22T04:51:26.691Z,4.18
2023-03-22T04:55:30.035Z,4.13
2023-03-22T04:59:32.831Z,4.13
2023-03-22T05:03:36.470Z,4.21
2023-03-22T05:07:40.545Z,4.28
2023-03-22T05:11:43.358Z,4.33
2023-03-22T05:15:47.343Z,4.33
2023-03-22T05:19:52.313Z,4.30
2023-03-22T05:23:57.839Z,4.44
2023-03-22T05:28:01.583Z,4.50
2023-03-22T05:32:04.429Z,4.45
2023-03-22T05:36:08.017Z,4.46
2023-03-22T05:40:12.693Z,4.52
2023-03-22T05:44:15.463Z,4.76
2023-03-22T05:48:18.543Z,4.73
2023-03-22T05:52:21.254Z,4.79
2023-03-22T05:56:25.311Z,4.86
2023-03-22T06:00:28.813Z,5.02
2023-03-22T06:04:31.494Z,5.05
2023-03-22T06:08:34.692Z,5.14
2023-03-22T06:12:39.264Z,5.46
2023-03-22T06:16:42.040Z,5.57
2023-03-22T06:20:44.941Z,5.75
2023-03-22T06:24:48.942Z,5.77
2023-03-22T06:28:52.938Z,5.99
2023-03-22T06:32:55.474Z,6.14
2023-03-22T06:36:58.155Z,6.33
2023-03-22T06:41:00.861Z,6.56
2023-03-22T06:45:06.194Z,6.80
2023-03-22T06:49:08.835Z,7.15
2023-03-22T06:53:11.670Z,7.44
2023-03-22T06:57:14.411Z,7.79
2023-03-22T07:01:18.484Z,8.14
2023-03-22T07:05:21.815Z,8.15
2023-03-22T07:09:26.837Z,8.29
2023-03-22T07:13:29.696Z,8.34
2023-03-22T07:17:33.735Z,8.65
2023-03-22T07:21:36.466Z,8.57
2023-03-22T07:25:39.170Z,8.61
2023-03-22T07:29:42.269Z,8.66
2023-03-22T07:33:46.823Z,8.86
2023-03-22T07:37:49.994Z,8.97
2023-03-22T07:41:52.727Z,9.11
2023-03-22T07:45:55.583Z,9.10
2023-03-22T07:49:59.724Z,9.28
2023-03-22T07:54:02.573Z,9.24
2023-03-22T07:58:06.099Z,9.40
2023-03-22T08:02:11.087Z,9.41
2023-03-22T08:06:16.439Z,9.53
2023-03-22T08:10:19.728Z,9.68
2023-03-22T08:14:34.074Z,9.89
2023-03-22T08:18:39.005Z,10.04
2023-03-22T08:22:43.200Z,10.25
2023-03-22T08:26:49.692Z,10.63
2023-03-22T08:30:53.581Z,10.71
2023-03-22T08:34:56.450Z,10.84
2023-03-22T08:39:01.449Z,10.80
2023-03-22T08:43:04.278Z,10.62
2023-03-22T08:47:07.041Z,11.22
2023-03-22T08:51:10.674Z,11.32
2023-03-22T08:55:17.812Z,11.39
2023-03-22T08:59:20.500Z,11.46
2023-03-22T09:03:24.055Z,11.47
2023-03-22T09:07:27.335Z,11.61
2023-03-22T09:11:31.348Z,11.50
2023-03-22T09:15:34.101Z,11.67
2023-03-22T09:19:37.034Z,12.03
2023-03-22T09:23:40.240Z,11.57
2023-03-22T09:27:44.420Z,11.84
2023-03-22T09:31:48.938Z,12.18
2023-03-22T09:35:51.661Z,11.88
2023-03-22T09:39:54.628Z,11.88
2023-03-22T09:44:01.768Z,12.66
2023-03-22T09:48:07.196Z,12.50
2023-03-22T09:52:14.301Z,12.92
2023-03-22T09:56:23.170Z,12.62
2023-03-22T10:00:34.866Z,12.72
2023-03-22T10:04:48.024Z,13.09
2023-03-22T10:08:58.525Z,13.10
2023-03-22T10:13:07.743Z,13.13
2023-03-22T10:17:16.633Z,14.08
2023-03-22T10:21:20.361Z,14.50
2023-03-22T10:25:32.835Z,14.45
2023-03-22T10:29:39.057Z,13.96
2023-03-22T10:33:50.472Z,14.05
2023-03-22T10:37:54.136Z,13.60
2023-03-22T10:41:58.467Z,13.34
2023-03-22T10:46:03.828Z,13.79
2023-03-22T10:50:13.738Z,14.06
2023-03-22T10:54:18.160Z,14.14
2023-03-22T10:58:22.252Z,14.81
2023-03-22T11:02:27.691Z,15.14
2023-03-22T11:06:35.659Z,15.45
2023-03-22T11:10:39.181Z,15.25
2023-03-22T11:14:44.635Z,15.55
2023-03-22T11:18:47.544Z,14.94
2023-03-22T11:22:52.777Z,15.04
2023-03-22T11:27:03.706Z,14.75
2023-03-22T11:31:09.420Z,14.82
2023-03-22T11:35:14.923Z,14.76
2023-03-22T11:39:19.201Z,14.61
2023-03-22T11:43:24.427Z,14.78
2023-03-22T11:47:28.143Z,14.61
2023-03-22T11:51:33.476Z,14.75
2023-03-22T11:55:37.966Z,15.12
2023-03-22T11:59:43.680Z,15.14
2023-03-22T12:03:51.142Z,15.07
2023-03-22T12:07:57.931Z,15.12
2023-03-22T12:12:03.060Z,15.08
2023-03-22T12:16:07.708Z,15.42
2023-03-22T12:20:18.757Z,14.67
2023-03-22T12:24:27.953Z,15.03
2023-03-22T12:28:35.018Z,14.88
2023-03-22T12:32:41.908Z,14.66
2023-03-22T12:36:48.009Z,15.06
2023-03-22T12:40:50.920Z,15.16
2023-03-22T12:45:05.094Z,15.04
2023-03-22T12:49:17.591Z,14.96
2023-03-22T12:53:21.528Z,15.53
2023-03-22T12:57:24.237Z,15.88
2023-03-22T13:01:34.677Z,16.71
2023-03-22T13:05:37.951Z,16.53
2023-03-22T13:09:43.454Z,16.83
2023-03-22T13:13:47.933Z,15.80
2023-03-22T13:17:52.000Z,16.50
2023-03-22T13:22:15.026Z,15.46
2023-03-22T13:26:18.183Z,16.18
2023-03-22T13:30:26.239Z,16.49
2023-03-22T13:34:38.243Z,16.68
2023-03-22T13:38:42.778Z,16.28
2023-03-22T13:42:45.717Z,16.50
2023-03-22T13:46:52.475Z,16.23
2023-03-22T13:50:56.923Z,16.14
2023-03-22T13:54:59.941Z,15.98
2023-03-22T13:59:04.983Z,15.72
2023-03-22T14:03:14.950Z,15.48
2023-03-22T14:07:24.273Z,15.77
2023-03-22T14:11:30.623Z,15.45
2023-03-22T14:15:36.212Z,15.42
2023-03-22T14:19:39.703Z,15.44
